Time;durP1;ratioP1;P1;durP2;ratioP2;P2;SDS_P1;SDS_P2;PMS_P1;PMS_P2;Temp;Humidity;BMP_temperature;BMP_pressure;BME280_temperature;BME280_humidity;BME280_pressure;Samples;Min_cycle;Max_cycle;Signal;HPM_P1;HPM_P2
2020/12/23 00:02:22;;;;;;;41.88;18.80;;;;;;;4.83;76.46;94060.31;4954226;29;20575;-39
2020/12/23 00:04:48;;;;;;;52.50;20.38;;;;;;;4.95;76.38;94061.06;4954924;29;20523;-38
2020/12/23 00:07:15;;;;;;;50.33;20.67;;;;;;;4.88;76.19;94072.50;4954627;29;20578;-39
2020/12/23 00:09:42;;;;;;;47.95;19.65;;;;;;;4.76;76.50;94071.75;4955033;29;20107;-39
2020/12/23 00:12:07;;;;;;;62.63;24.77;;;;;;;4.75;77.36;94067.50;4954538;28;20568;-39
2020/12/23 00:14:33;;;;;;;60.00;24.75;;;;;;;4.75;77.01;94064.03;4954613;29;20119;-39
2020/12/23 00:16:58;;;;;;;50.67;22.63;;;;;;;4.78;76.68;94072.00;4954903;29;20023;-39
2020/12/23 00:19:24;;;;;;;54.63;24.33;;;;;;;4.86;76.68;94069.50;4954861;29;20031;-39
2020/12/23 00:21:49;;;;;;;50.65;23.83;;;;;;;4.88;75.98;94067.03;4954374;29;20031;-39
2020/12/23 00:24:15;;;;;;;59.03;24.30;;;;;;;4.99;75.56;94073.25;4954485;29;20524;-39
2020/12/23 00:26:44;;;;;;;55.25;27.50;;;;;;;4.75;76.39;94072.22;4952007;28;20499;-39
2020/12/23 00:29:09;;;;;;;62.00;27.00;;;;;;;4.62;77.26;94072.72;4953359;29;20034;-39
2020/12/23 00:31:34;;;;;;;56.60;25.52;;;;;;;4.73;77.00;94074.72;4953945;29;20035;-40
2020/12/23 00:34:00;;;;;;;58.25;23.65;;;;;;;4.76;76.94;94076.47;4954240;29;20027;-39
2020/12/23 00:36:25;;;;;;;49.55;23.08;;;;;;;4.53;77.89;94073.69;4954499;29;20104;-39
2020/12/23 00:38:51;;;;;;;55.72;23.48;;;;;;;4.57;78.10;94076.19;4954079;29;20572;-39
2020/12/23 00:41:17;;;;;;;62.25;24.63;;;;;;;4.67;77.60;94073.97;4954216;29;20028;-38
2020/12/23 00:43:43;;;;;;;63.70;26.95;;;;;;;4.63;77.41;94073.47;4953782;29;20102;-39
2020/12/23 00:46:12;;;;;;;84.38;34.42;;;;;;;4.57;77.63;94076.94;4953478;29;20142;-38
2020/12/23 00:48:41;;;;;;;;;;;;;;;4.65;77.57;94076.47;4955023;29;20106;-37
2020/12/23 00:51:14;;;;;;;45.47;18.73;;;;;;;4.50;77.65;94069.22;4954400;29;19914;-38
2020/12/23 00:53:40;;;;;;;42.08;18.48;;;;;;;4.30;78.48;94068.69;4953956;29;20023;-38
2020/12/23 00:56:06;;;;;;;49.10;16.88;;;;;;;4.23;79.10;94069.91;4953882;29;20515;-38
2020/12/23 00:58:31;;;;;;;47.50;16.83;;;;;;;4.25;79.11;94066.66;4954048;29;20102;-38
2020/12/23 01:00:57;;;;;;;39.70;16.98;;;;;;;4.41;78.53;94071.44;4953919;29;20544;-38
2020/12/23 01:03:23;;;;;;;43.83;18.05;;;;;;;4.57;77.96;94074.19;4954004;29;20073;-38
2020/12/23 01:05:48;;;;;;;41.20;18.70;;;;;;;4.63;77.84;94072.22;4953511;29;20428;-38
2020/12/23 01:08:14;;;;;;;37.30;17.45;;;;;;;4.59;77.94;94068.97;4953543;29;20461;-38
2020/12/23 01:10:39;;;;;;;46.60;20.50;;;;;;;4.52;77.77;94074.97;4953585;29;20023;-38
2020/12/23 01:13:05;;;;;;;42.10;19.15;;;;;;;4.44;78.23;94054.78;4953474;29;20031;-38
2020/12/23 01:15:30;;;;;;;45.05;17.70;;;;;;;4.60;77.98;94064.25;4953634;29;20024;-38
2020/12/23 01:17:56;;;;;;;38.83;17.73;;;;;;;4.46;78.08;94063.25;4953602;29;20019;-38
2020/12/23 01:20:21;;;;;;;45.05;18.73;;;;;;;4.31;78.44;94051.06;4953401;29;20019;-40
2020/12/23 01:22:46;;;;;;;45.95;17.98;;;;;;;4.31;78.89;94054.50;4953084;28;20468;-39
2020/12/23 01:25:12;;;;;;;39.35;18.92;;;;;;;4.18;79.22;94056.97;4953259;29;20031;-40
2020/12/23 01:27:37;;;;;;;43.95;18.70;;;;;;;4.46;78.93;94055.03;4953296;29;20031;-40
2020/12/23 01:30:04;;;;;;;48.78;18.05;;;;;;;4.41;78.58;94052.31;4953349;29;20031;-40
2020/12/23 01:32:29;;;;;;;37.20;18.48;;;;;;;4.51;78.41;94054.31;4953183;29;20027;-41
2020/12/23 01:34:55;;;;;;;45.28;18.40;;;;;;;4.59;78.08;94060.06;4953411;29;20026;-39
2020/12/23 01:37:20;;;;;;;39.45;18.15;;;;;;;4.73;77.95;94058.31;4953078;29;20625;-39
2020/12/23 01:39:45;;;;;;;44.65;20.40;;;;;;;4.80;77.79;94055.84;4952952;29;20019;-39
2020/12/23 01:42:12;;;;;;;39.30;17.55;;;;;;;4.85;77.14;94051.63;4953266;29;20019;-39
2020/12/23 01:44:37;;;;;;;39.25;19.02;;;;;;;4.89;76.96;94043.91;4953042;29;20126;-40
2020/12/23 01:47:05;;;;;;;38.78;18.98;;;;;;;4.88;76.97;94043.16;4952843;29;20159;-41
2020/12/23 01:49:31;;;;;;;42.33;19.17;;;;;;;4.86;77.15;94039.41;4935825;29;20027;-43
2020/12/23 01:51:56;;;;;;;36.75;18.30;;;;;;;4.79;77.50;94039.91;4935628;29;20277;-41
2020/12/23 01:54:22;;;;;;;47.85;18.67;;;;;;;4.89;77.17;94032.97;4952568;29;20150;-39
2020/12/23 01:56:47;;;;;;;45.28;17.48;;;;;;;4.69;77.42;94027.72;4951598;29;20394;-39
2020/12/23 01:59:13;;;;;;;41.90;18.27;;;;;;;4.73;77.53;94023.50;4952582;29;20019;-40
2020/12/23 02:01:45;;;;;;;40.72;18.48;;;;;;;4.81;77.36;94023.75;4952367;29;20809;-39
2020/12/23 02:04:10;;;;;;;45.22;18.65;;;;;;;4.91;77.06;94023.00;4952702;29;20034;-40
2020/12/23 02:06:37;;;;;;;39.70;18.85;;;;;;;4.82;76.93;94014.31;4936487;29;20482;-40
2020/12/23 02:09:03;;;;;;;44.03;18.95;;;;;;;4.83;77.16;94008.31;4953518;29;20023;-39
2020/12/23 02:11:29;;;;;;;50.00;19.70;;;;;;;4.78;77.13;94008.34;4953645;29;20110;-40
2020/12/23 02:13:54;;;;;;;43.85;18.27;;;;;;;4.84;77.10;94018.03;4953483;29;20102;-39
2020/12/23 02:16:20;;;;;;;45.85;19.17;;;;;;;4.88;76.74;94015.78;4953386;29;20038;-42
2020/12/23 02:18:45;;;;;;;41.35;18.55;;;;;;;4.93;76.33;94017.78;4953606;29;20038;-40
2020/12/23 02:21:11;;;;;;;42.28;18.77;;;;;;;4.85;76.96;94013.31;4953702;29;20037;-42
2020/12/23 02:23:36;;;;;;;54.78;21.13;;;;;;;4.89;77.00;94017.28;4953857;29;20029;-42
2020/12/23 02:26:02;;;;;;;46.20;20.20;;;;;;;4.91;76.64;94012.06;4953714;29;20118;-41
2020/12/23 02:28:27;;;;;;;38.92;19.30;;;;;;;4.99;76.32;94004.84;4953416;29;20050;-40
2020/12/23 02:31:03;;;;;;;43.00;21.25;;;;;;;5.07;75.82;94005.81;4953092;29;20019;-41
2020/12/23 02:33:28;;;;;;;46.78;20.67;;;;;;;4.84;76.51;94009.81;4953627;28;20039;-41
2020/12/23 02:35:54;;;;;;;48.15;20.40;;;;;;;4.78;76.93;94005.59;4953200;29;20492;-41
2020/12/23 02:38:20;;;;;;;43.30;19.50;;;;;;;4.64;77.58;94004.59;4953523;29;20031;-42
2020/12/23 02:40:45;;;;;;;44.85;19.98;;;;;;;4.64;77.73;93988.19;4953468;29;20026;-42
2020/12/23 02:43:10;;;;;;;51.35;20.50;;;;;;;4.58;78.05;93990.19;4953716;29;20131;-41
2020/12/23 02:45:36;;;;;;;48.33;19.77;;;;;;;4.44;78.55;93986.44;4951093;29;20087;-41
2020/12/23 02:48:02;;;;;;;41.85;19.70;;;;;;;4.52;78.54;93992.16;4934320;29;20024;-42
2020/12/23 02:50:27;;;;;;;47.88;20.35;;;;;;;4.63;78.01;93992.91;4934269;29;20500;-41
2020/12/23 02:52:53;;;;;;;46.97;19.40;;;;;;;4.69;77.97;93997.63;4934274;29;20024;-41
2020/12/23 02:55:18;;;;;;;42.47;18.80;;;;;;;4.87;76.99;93989.69;4934204;29;20027;-43
2020/12/23 02:57:43;;;;;;;45.42;19.38;;;;;;;4.94;76.46;93994.63;4934295;29;20048;-41
2020/12/23 03:00:09;;;;;;;51.47;22.42;;;;;;;4.77;76.64;94004.09;4934156;29;20028;-42
2020/12/23 03:02:34;;;;;;;44.38;19.92;;;;;;;4.42;78.18;93994.38;4934163;29;20409;-42
2020/12/23 03:05:00;;;;;;;41.78;19.08;;;;;;;4.51;78.52;93996.13;4917279;29;20016;-42
2020/12/23 03:07:25;;;;;;;53.80;21.77;;;;;;;4.45;78.53;94001.63;4932712;29;20671;-41
2020/12/23 03:09:51;;;;;;;49.40;20.90;;;;;;;4.48;78.40;94003.34;4934084;29;20028;-40
2020/12/23 03:12:16;;;;;;;51.35;20.85;;;;;;;4.38;79.23;94009.53;4934134;29;20028;-43
2020/12/23 03:14:41;;;;;;;53.22;19.73;;;;;;;4.44;78.77;93996.66;4934079;29;20031;-40
2020/12/23 03:17:07;;;;;;;52.88;21.80;;;;;;;4.34;79.52;93998.88;4934037;29;20024;-40
2020/12/23 03:19:32;;;;;;;46.60;22.35;;;;;;;4.56;78.79;93998.13;4933966;29;20070;-40
2020/12/23 03:21:58;;;;;;;51.05;23.52;;;;;;;4.61;78.61;94002.88;4933940;29;20063;-41
2020/12/23 03:24:23;;;;;;;55.03;26.35;;;;;;;4.67;78.59;94002.88;4933942;29;20092;-40
2020/12/23 03:26:49;;;;;;;51.42;24.52;;;;;;;4.76;78.17;94005.34;4933929;29;20522;-41
2020/12/23 03:29:14;;;;;;;53.65;22.85;;;;;;;4.77;77.77;93998.63;4934077;29;20553;-40
2020/12/23 03:31:41;;;;;;;47.78;23.33;;;;;;;4.83;77.47;94004.88;4934083;29;20510;-41
2020/12/23 03:34:06;;;;;;;48.03;21.40;;;;;;;4.82;77.32;93992.41;4933957;29;20026;-40
2020/12/23 03:36:32;;;;;;;56.90;24.50;;;;;;;4.96;77.00;94007.84;4934089;29;20024;-42
2020/12/23 03:38:57;;;;;;;66.07;26.65;;;;;;;4.92;77.01;94007.31;4933934;29;20449;-40
2020/12/23 03:41:22;;;;;;;54.65;23.08;;;;;;;4.71;77.55;94008.81;4933807;29;20075;-41
2020/12/23 03:43:48;;;;;;;46.92;21.30;;;;;;;4.77;77.40;94006.84;4933772;29;20020;-40
2020/12/23 03:46:13;;;;;;;58.90;23.83;;;;;;;4.81;77.44;94015.56;4942389;29;20134;-40
2020/12/23 03:48:39;;;;;;;51.97;22.25;;;;;;;4.99;77.02;94013.06;4956680;29;20118;-39
2020/12/23 03:51:04;;;;;;;50.13;22.15;;;;;;;4.85;76.78;94016.06;4956765;29;20058;-40
2020/12/23 03:53:30;;;;;;;53.70;21.42;;;;;;;4.91;77.08;94016.78;4956480;29;20506;-39
2020/12/23 03:55:56;;;;;;;49.28;21.95;;;;;;;4.73;77.39;94017.28;4956462;29;20027;-40
2020/12/23 03:58:21;;;;;;;58.25;22.63;;;;;;;4.63;77.83;94011.31;4956467;29;20019;-39
2020/12/23 04:00:46;;;;;;;48.63;22.23;;;;;;;4.71;77.92;94015.06;4956294;29;20024;-39
2020/12/23 04:03:12;;;;;;;54.75;22.52;;;;;;;4.85;77.42;94014.03;4956213;29;20023;-39
2020/12/23 04:05:38;;;;;;;77.32;26.75;;;;;;;4.87;77.12;94022.53;4956193;29;20019;-40
2020/12/23 04:08:04;;;;;;;50.03;22.23;;;;;;;4.92;76.99;94016.28;4956228;29;20030;-41
2020/12/23 04:10:29;;;;;;;57.30;23.33;;;;;;;4.93;76.99;94020.53;4956102;29;20033;-41
2020/12/23 04:12:55;;;;;;;55.53;21.85;;;;;;;4.93;76.84;94020.53;4956104;29;20027;-39
2020/12/23 04:15:20;;;;;;;48.88;21.95;;;;;;;4.91;76.78;94022.25;4956384;29;20019;-40
2020/12/23 04:17:46;;;;;;;51.92;21.98;;;;;;;4.88;77.21;94023.25;4955936;29;20074;-40
2020/12/23 04:20:11;;;;;;;51.58;21.63;;;;;;;4.83;77.39;94013.06;4956002;29;20031;-40
2020/12/23 04:22:37;;;;;;;42.95;20.52;;;;;;;4.79;77.32;94018.78;4955903;29;20035;-40
2020/12/23 04:25:05;;;;;;;43.88;19.95;;;;;;;4.85;77.33;94014.03;4955969;29;20086;-39
2020/12/23 04:27:30;;;;;;;43.58;20.17;;;;;;;4.81;77.32;94015.56;4955764;29;20042;-39
2020/12/23 04:29:56;;;;;;;52.90;23.40;;;;;;;4.61;78.07;94011.81;4955747;29;20032;-40
2020/12/23 04:32:22;;;;;;;65.00;25.70;;;;;;;4.65;78.01;94017.03;4955922;29;20508;-39
2020/12/23 04:34:48;;;;;;;80.90;31.55;;;;;;;4.76;78.04;94022.53;4955734;29;20034;-40
2020/12/23 04:37:13;;;;;;;78.82;33.03;;;;;;;4.81;77.68;94021.03;4955917;29;20027;-40
2020/12/23 04:39:38;;;;;;;78.75;31.48;;;;;;;4.79;77.73;94020.75;4955881;29;20046;-42
2020/12/23 04:42:05;;;;;;;62.25;27.58;;;;;;;4.67;77.74;94020.03;4955396;29;20432;-41
2020/12/23 04:44:31;;;;;;;53.70;22.67;;;;;;;4.82;77.51;94027.97;4955867;29;20030;-41
2020/12/23 04:46:57;;;;;;;55.15;23.75;;;;;;;4.87;77.28;94022.53;4955356;29;20054;-41
2020/12/23 04:49:23;;;;;;;60.60;24.88;;;;;;;4.88;77.52;94020.50;4955639;29;20051;-42
2020/12/23 04:51:53;;;;;;;62.08;27.15;;;;;;;4.94;77.30;94032.19;4955599;29;20098;-41
2020/12/23 04:54:18;;;;;;;60.97;27.80;;;;;;;4.98;77.10;94029.97;4955467;29;20038;-43
2020/12/23 04:56:44;;;;;;;64.85;27.45;;;;;;;4.81;77.81;94023.75;4955026;28;20497;-42
2020/12/23 04:59:09;;;;;;;65.55;28.38;;;;;;;4.65;78.21;94019.78;4954768;29;20098;-42
2020/12/23 05:01:34;;;;;;;62.47;25.48;;;;;;;4.54;78.64;94033.44;4955239;29;20389;-41
2020/12/23 05:04:00;;;;;;;55.53;21.58;;;;;;;4.76;78.43;94028.00;4955307;29;20510;-42
2020/12/23 05:06:26;;;;;;;50.75;23.48;;;;;;;4.82;78.15;94022.50;4955282;29;20504;-43
2020/12/23 05:08:51;;;;;;;62.22;27.95;;;;;;;4.87;77.74;94013.56;4955210;29;20031;-41
2020/12/23 05:11:17;;;;;;;66.47;29.45;;;;;;;4.87;78.08;94013.56;4955299;29;20424;-42
2020/12/23 05:13:43;;;;;;;56.95;24.80;;;;;;;5.02;77.46;94019.53;4954971;29;20420;-42
2020/12/23 05:16:11;;;;;;;55.03;23.08;;;;;;;4.98;77.30;94016.28;4955115;29;20037;-43
2020/12/23 05:18:40;;;;;;;52.17;20.73;;;;;;;4.99;77.71;94024.00;4938006;29;20531;-44
2020/12/23 05:21:16;;;;;;;44.03;19.75;;;;;;;4.72;78.82;94016.53;4954903;29;20046;-44
2020/12/23 05:23:46;;;;;;;51.20;22.17;;;;;;;4.59;79.18;94006.09;4954976;29;20523;-42
2020/12/23 05:26:12;;;;;;;52.13;22.60;;;;;;;4.48;79.46;94025.22;4937784;29;20098;-41
2020/12/23 05:28:38;;;;;;;49.20;24.83;;;;;;;4.32;80.13;94011.53;4953591;29;20038;-41
2020/12/23 05:31:12;;;;;;;54.55;25.40;;;;;;;4.34;80.90;94025.44;4954925;29;20026;-41
2020/12/23 05:33:39;;;;;;;53.30;25.98;;;;;;;4.54;80.60;94012.31;4954796;29;20042;-42
2020/12/23 05:36:09;;;;;;;48.72;22.92;;;;;;;4.55;80.61;94019.25;4954621;29;20027;-42
2020/12/23 05:38:35;;;;;;;;;;;;;;;4.61;80.35;94020.00;4955070;29;20509;-42
2020/12/23 05:41:02;;;;;;;45.25;22.25;;;;;;;4.80;79.65;94023.00;4954481;29;19968;-42
2020/12/23 05:43:28;;;;;;;49.88;22.75;;;;;;;4.79;79.71;94031.69;4954612;29;20067;-42
2020/12/23 05:45:58;;;;;;;55.33;23.55;;;;;;;4.86;79.20;94028.47;4954312;29;20516;-42
2020/12/23 05:48:23;;;;;;;46.78;22.98;;;;;;;4.94;79.27;94037.66;4954457;29;20539;-42
2020/12/23 05:50:49;;;;;;;50.15;21.77;;;;;;;4.71;79.94;94038.91;4954370;29;20071;-41
2020/12/23 05:53:16;;;;;;;47.55;22.63;;;;;;;4.48;80.58;94038.16;4954210;29;20059;-46
2020/12/23 05:55:48;;;;;;;55.50;23.00;;;;;;;4.39;81.29;94039.13;4954443;29;20046;-42
2020/12/23 05:58:27;;;;;;;57.30;22.83;;;;;;;4.31;81.84;94038.09;4954389;29;20023;-40
2020/12/23 06:00:55;;;;;;;49.15;23.77;;;;;;;4.31;82.25;94043.56;4954173;29;20055;-41
2020/12/23 06:03:46;;;;;;;49.47;21.25;;;;;;;4.32;82.53;94045.09;4954188;29;20035;-41
2020/12/23 06:06:12;;;;;;;57.08;24.05;;;;;;;4.28;82.50;94046.56;4954257;29;20078;-41
2020/12/23 06:08:38;;;;;;;56.20;25.02;;;;;;;4.39;82.73;94052.81;4954003;28;20119;-41
2020/12/23 06:11:28;;;;;;;51.72;24.17;;;;;;;4.43;82.61;94053.31;4953983;29;20023;-41
2020/12/23 06:13:56;;;;;;;53.97;22.98;;;;;;;4.44;82.38;94056.78;4953931;29;20106;-41
2020/12/23 06:16:29;;;;;;;53.10;23.65;;;;;;;4.40;82.68;94057.03;4954087;29;20034;-41
2020/12/23 06:18:57;;;;;;;51.85;24.15;;;;;;;4.47;82.42;94061.25;4953902;29;20082;-41
2020/12/23 06:21:26;;;;;;;62.42;26.77;;;;;;;4.29;82.91;94061.69;4936658;29;20027;-41
2020/12/23 06:24:08;;;;;;;66.07;29.17;;;;;;;4.37;82.69;94073.66;4953768;29;20086;-40
2020/12/23 06:26:38;;;;;;;90.10;42.30;;;;;;;4.39;83.02;94063.75;4953965;29;20259;-39
2020/12/23 06:29:06;;;;;;;64.38;29.95;;;;;;;4.29;83.12;94059.72;4953748;29;20026;-41
2020/12/23 06:31:40;;;;;;;65.13;28.73;;;;;;;4.46;83.21;94067.97;4953741;29;20485;-40
2020/12/23 06:34:06;;;;;;;56.90;26.95;;;;;;;4.61;82.90;94057.56;4936883;29;20027;-41
2020/12/23 06:36:33;;;;;;;57.30;27.50;;;;;;;4.61;82.31;94063.03;4953824;29;20416;-41
2020/12/23 06:39:32;;;;;;;52.80;24.63;;;;;;;4.75;82.14;94069.50;4953558;29;20035;-41
2020/12/23 06:42:00;;;;;;;61.75;26.33;;;;;;;4.66;82.33;94067.03;4911346;29;20489;-41
2020/12/23 06:44:45;;;;;;;52.55;23.38;;;;;;;4.68;82.27;94075.47;4953603;29;20042;-41
2020/12/23 06:47:11;;;;;;;50.70;25.02;;;;;;;4.88;81.93;94067.78;4953330;29;20055;-42
2020/12/23 06:49:49;;;;;;;54.30;28.70;;;;;;;4.77;81.92;94062.28;4953473;29;20098;-41
2020/12/23 06:52:24;;;;;;;52.63;25.08;;;;;;;4.84;82.20;94078.22;4953565;29;20400;-40
2020/12/23 06:54:52;;;;;;;48.75;22.15;;;;;;;4.98;82.14;94071.75;4953715;29;20035;-44
2020/12/23 06:57:36;;;;;;;54.67;23.98;;;;;;;5.20;81.67;94076.47;4953537;29;20524;-44
2020/12/23 07:00:04;;;;;;;55.15;23.20;;;;;;;5.17;81.15;94077.47;4953308;29;20031;-42
2020/12/23 07:02:57;;;;;;;47.35;20.98;;;;;;;5.18;80.95;94087.94;4953290;29;20020;-41
2020/12/23 07:05:22;;;;;;;46.15;21.90;;;;;;;5.26;80.63;94086.16;4950022;29;20059;-41
2020/12/23 07:07:54;;;;;;;45.78;21.25;;;;;;;5.19;81.05;94096.88;4953328;29;20138;-42
2020/12/23 07:10:22;;;;;;;46.22;23.52;;;;;;;5.05;81.71;94095.13;4953344;29;20521;-43
2020/12/23 07:12:48;;;;;;;47.00;23.52;;;;;;;5.10;81.96;94099.88;4953249;29;20480;-43
2020/12/23 07:15:19;;;;;;;49.58;21.95;;;;;;;5.00;82.36;94104.09;4953300;29;20484;-42
2020/12/23 07:17:45;;;;;;;56.00;21.02;;;;;;;5.08;82.41;94097.63;4953249;29;20031;-42
2020/12/23 07:20:13;;;;;;;53.20;23.90;;;;;;;5.17;82.41;94096.66;4953287;28;20114;-41
2020/12/23 07:22:38;;;;;;;52.35;23.70;;;;;;;5.05;82.33;94086.91;4957089;29;20047;-42
2020/12/23 07:25:05;;;;;;;49.63;22.92;;;;;;;5.28;81.96;94100.09;4939866;29;20033;-42
2020/12/23 07:27:31;;;;;;;39.40;18.92;;;;;;;5.22;81.96;94101.34;4957050;29;20477;-41
2020/12/23 07:30:06;;;;;;;45.95;20.20;;;;;;;5.34;81.78;94105.59;4957003;29;20052;-42
2020/12/23 07:32:32;;;;;;;40.15;20.00;;;;;;;5.29;81.89;94101.63;4956646;29;20054;-42
2020/12/23 07:34:59;;;;;;;47.45;20.58;;;;;;;5.21;82.11;94102.63;4956871;29;20024;-43
2020/12/23 07:37:26;;;;;;;50.53;21.85;;;;;;;5.17;82.66;94099.38;4956603;29;20043;-41
2020/12/23 07:39:52;;;;;;;67.82;27.35;;;;;;;5.27;82.47;94101.38;4956275;29;20038;-42
2020/12/23 07:42:19;;;;;;;67.60;30.10;;;;;;;5.26;82.75;94108.06;4956052;29;20027;-43
2020/12/23 07:44:53;;;;;;;61.40;27.58;;;;;;;5.12;83.00;94103.59;4956103;29;20513;-42
2020/12/23 07:47:23;;;;;;;64.68;28.55;;;;;;;5.28;83.18;94107.59;4955543;29;20549;-43
2020/12/23 07:50:04;;;;;;;48.95;22.70;;;;;;;5.41;82.80;94109.81;4951027;29;20082;-45
2020/12/23 07:52:30;;;;;;;48.30;22.73;;;;;;;5.38;82.85;94104.09;4953793;29;20020;-43
2020/12/23 07:55:11;;;;;;;50.00;21.80;;;;;;;5.47;82.69;94111.31;4955967;29;20118;-43
2020/12/23 07:57:37;;;;;;;45.85;20.20;;;;;;;5.20;82.75;94109.31;4954529;29;20034;-44
2020/12/23 08:00:07;;;;;;;47.72;21.73;;;;;;;5.30;83.11;94110.59;4955801;29;20106;-44
2020/12/23 08:02:33;;;;;;;52.83;24.23;;;;;;;5.22;83.42;94121.28;4953734;29;20034;-45
2020/12/23 08:04:59;;;;;;;46.25;20.35;;;;;;;5.31;83.38;94117.53;4955851;29;20027;-43
2020/12/23 08:07:25;;;;;;;47.28;23.15;;;;;;;5.27;83.37;94117.03;4955975;29;20139;-46
2020/12/23 08:09:51;;;;;;;44.83;21.63;;;;;;;5.41;82.73;94113.31;4955731;29;20420;-45
2020/12/23 08:12:20;;;;;;;48.47;21.48;;;;;;;5.32;83.27;94111.56;4954796;29;20100;-46
2020/12/23 08:14:46;;;;;;;;;;;;;;;5.43;82.88;94113.56;4954651;29;20023;-43
2020/12/23 08:17:31;;;;;;;47.22;21.23;;;;;;;5.50;82.36;94110.28;4954791;29;19921;-46
2020/12/23 08:20:24;;;;;;;44.38;20.05;;;;;;;5.61;82.02;94110.28;4951646;29;20061;-44
2020/12/23 08:22:50;;;;;;;47.35;21.70;;;;;;;5.87;81.70;94102.53;4953063;29;20057;-44
2020/12/23 08:25:18;;;;;;;43.47;20.80;;;;;;;5.87;81.45;94104.53;4954452;29;20027;-44
2020/12/23 08:27:45;;;;;;;48.22;23.20;;;;;;;5.77;81.66;94108.75;4951996;29;20054;-42
2020/12/23 08:30:23;;;;;;;49.47;22.20;;;;;;;5.54;82.42;94110.06;4936245;29;20038;-51
2020/12/23 08:33:11;;;;;;;47.88;22.48;;;;;;;5.68;82.81;94103.56;4953056;28;20035;-45
2020/12/23 08:35:38;;;;;;;46.80;19.25;;;;;;;5.77;82.65;94098.56;4937159;29;20457;-46
2020/12/23 08:38:05;;;;;;;45.00;20.23;;;;;;;5.88;82.24;94101.31;4954299;29;20058;-45
2020/12/23 08:40:30;;;;;;;50.92;21.58;;;;;;;5.99;82.04;94106.00;4954277;29;20046;-46
2020/12/23 08:42:59;;;;;;;40.95;21.17;;;;;;;5.90;82.18;94100.78;4954632;29;20023;-43
2020/12/23 08:45:31;;;;;;;46.20;22.23;;;;;;;5.90;82.62;94109.00;4954467;29;20023;-42
2020/12/23 08:47:58;;;;;;;43.55;21.33;;;;;;;5.84;83.21;94103.56;4953879;29;20523;-43
2020/12/23 08:50:27;;;;;;;43.80;20.70;;;;;;;5.94;82.82;94093.81;4949735;29;20022;-44
2020/12/23 08:52:54;;;;;;;45.42;22.25;;;;;;;5.97;82.91;94098.28;4951355;29;20031;-45
2020/12/23 08:55:23;;;;;;;43.60;20.73;;;;;;;6.05;82.22;94087.53;4953863;29;20415;-46
2020/12/23 08:58:10;;;;;;;42.17;20.35;;;;;;;6.15;82.69;94088.75;4953967;29;20027;-44
2020/12/23 09:00:35;;;;;;;41.10;18.25;;;;;;;6.18;82.18;94081.50;4950992;29;20114;-43
2020/12/23 09:03:01;;;;;;;39.75;19.85;;;;;;;5.99;82.97;94076.59;4953398;29;20110;-43
2020/12/23 09:05:30;;;;;;;39.60;20.10;;;;;;;5.88;83.45;94073.16;4953431;29;20065;-43
2020/12/23 09:08:04;;;;;;;;;;;;;;;5.98;83.17;94066.88;4953478;29;20398;-44
2020/12/23 09:10:31;;;;;;;36.80;18.67;;;;;;;6.08;83.24;94064.63;4953970;29;20045;-42
2020/12/23 09:13:11;;;;;;;50.42;23.13;;;;;;;6.20;83.18;94065.28;4953588;29;20508;-46
2020/12/23 09:15:37;;;;;;;53.22;23.35;;;;;;;6.24;82.81;94038.38;4953585;29;20063;-45
2020/12/23 09:18:11;;;;;;;39.08;20.55;;;;;;;6.40;82.71;94051.25;4953745;29;20030;-46
2020/12/23 09:20:40;;;;;;;38.72;19.15;;;;;;;6.28;82.51;94047.81;4954295;28;20038;-43
2020/12/23 09:23:06;;;;;;;;;;;;;;;6.47;82.69;94051.47;4955460;28;20075;-45
2020/12/23 09:25:33;;;;;;;37.28;19.00;;;;;;;6.61;82.52;94044.13;4953088;29;19911;-44
2020/12/23 09:28:12;;;;;;;47.08;20.85;;;;;;;6.56;82.96;94053.16;4952981;29;20034;-44
2020/12/23 09:30:48;;;;;;;47.83;24.20;;;;;;;6.77;82.38;94057.75;4953481;29;20023;-43
2020/12/23 09:33:16;;;;;;;40.40;20.02;;;;;;;6.80;82.19;94050.47;4953157;29;20031;-44
2020/12/23 09:35:43;;;;;;;40.90;19.70;;;;;;;6.96;81.60;94051.63;4953393;29;20058;-43
2020/12/23 09:38:10;;;;;;;41.45;19.13;;;;;;;6.99;81.62;94036.88;4953334;28;20051;-42
2020/12/23 09:40:37;;;;;;;36.95;19.15;;;;;;;6.91;81.83;94038.69;4959005;28;20031;-43
2020/12/23 09:43:07;;;;;;;38.35;18.95;;;;;;;7.09;80.88;94044.28;4958760;28;20069;-43
2020/12/23 09:45:32;;;;;;;34.17;18.17;;;;;;;7.10;80.85;94034.81;4963245;28;20054;-43
2020/12/23 09:47:58;;;;;;;39.50;20.17;;;;;;;7.25;80.55;94026.94;4956506;28;20110;-45
2020/12/23 09:50:23;;;;;;;37.40;18.98;;;;;;;7.30;80.50;94028.13;4946691;28;20023;-45
2020/12/23 09:52:49;;;;;;;34.65;17.90;;;;;;;7.45;80.25;94031.97;4952903;29;20028;-44
2020/12/23 09:55:14;;;;;;;37.63;19.42;;;;;;;7.49;79.38;94028.94;4952961;29;21699;-43
2020/12/23 09:57:39;;;;;;;33.97;18.60;;;;;;;7.52;79.32;94036.91;4951590;29;20030;-45
2020/12/23 10:00:07;;;;;;;46.55;24.23;;;;;;;7.55;79.35;94032.38;4954721;28;20019;-45
2020/12/23 10:02:33;;;;;;;35.75;18.70;;;;;;;7.68;79.02;94023.50;4951473;28;20548;-44
2020/12/23 10:04:58;;;;;;;37.30;17.67;;;;;;;7.72;78.28;94021.22;4953932;28;20031;-48
2020/12/23 10:07:24;;;;;;;45.13;21.80;;;;;;;7.75;78.09;94014.69;4950534;29;20030;-47
2020/12/23 10:09:49;;;;;;;39.28;20.75;;;;;;;7.86;77.82;94022.81;4951250;29;20027;-44
2020/12/23 10:12:15;;;;;;;39.55;20.85;;;;;;;7.85;77.29;94015.81;4957882;28;20026;-48
2020/12/23 10:14:40;;;;;;;35.35;17.40;;;;;;;7.84;77.37;94006.81;4960120;28;20034;-45
2020/12/23 10:17:06;;;;;;;39.10;21.67;;;;;;;7.72;77.49;93999.97;4952280;29;20031;-44
2020/12/23 10:19:31;;;;;;;33.30;17.20;;;;;;;7.78;78.05;94003.41;4951587;29;20023;-45
2020/12/23 10:21:57;;;;;;;39.60;18.67;;;;;;;7.79;77.88;94002.16;4949501;29;20034;-45
2020/12/23 10:24:22;;;;;;;40.03;18.27;;;;;;;7.68;78.47;93999.53;4949805;29;20023;-44
2020/12/23 10:26:52;;;;;;;33.47;18.10;;;;;;;7.86;78.35;93995.31;4950397;29;20078;-51
2020/12/23 10:29:18;;;;;;;33.60;19.05;;;;;;;8.01;78.35;94003.88;4945812;29;20027;-47
2020/12/23 10:31:44;;;;;;;36.65;18.88;;;;;;;8.06;77.45;94003.81;4948732;29;20055;-44
2020/12/23 10:34:10;;;;;;;40.05;20.20;;;;;;;8.17;77.47;94003.66;4951768;29;20049;-46
2020/12/23 10:36:35;;;;;;;37.35;18.48;;;;;;;8.10;77.03;93974.00;4953227;29;20640;-45
2020/12/23 10:39:02;;;;;;;33.63;17.85;;;;;;;8.23;77.30;93981.56;4949544;29;20137;-46
2020/12/23 10:41:27;;;;;;;34.55;17.98;;;;;;;8.16;77.14;93974.69;4941998;28;20036;-45
2020/12/23 10:43:53;;;;;;;38.42;19.70;;;;;;;8.29;77.40;93974.78;4950019;29;20416;-49
2020/12/23 10:46:18;;;;;;;39.92;18.15;;;;;;;8.34;77.36;93973.22;4949197;29;20043;-46
2020/12/23 10:48:44;;;;;;;35.22;21.83;;;;;;;8.45;77.32;93975.81;4943170;29;20028;-46
2020/12/23 10:51:09;;;;;;;39.70;20.48;;;;;;;8.32;77.96;93967.47;4941626;29;20079;-46
2020/12/23 10:53:36;;;;;;;35.10;17.98;;;;;;;8.29;77.70;93977.53;4941279;29;20532;-47
2020/12/23 10:56:01;;;;;;;50.67;25.77;;;;;;;8.47;77.54;93986.31;4942297;29;20062;-46
2020/12/23 10:58:27;;;;;;;31.15;17.60;;;;;;;8.43;77.34;93983.84;4942299;29;20137;-45
2020/12/23 11:00:54;;;;;;;36.38;19.83;;;;;;;8.41;77.05;93978.13;4940777;29;20027;-48
2020/12/23 11:03:19;;;;;;;31.20;18.45;;;;;;;8.50;76.57;93988.00;4940778;29;20027;-46
2020/12/23 11:05:45;;;;;;;32.35;16.58;;;;;;;8.68;76.59;93981.75;4941937;29;20087;-45
2020/12/23 11:08:10;;;;;;;33.58;17.67;;;;;;;8.75;76.34;93981.13;4940540;29;20043;-48
2020/12/23 11:10:36;;;;;;;38.05;20.83;;;;;;;8.95;76.24;93975.03;4942805;29;20032;-47
2020/12/23 11:13:02;;;;;;;34.13;16.63;;;;;;;8.97;75.57;93967.00;4940344;29;20110;-48
2020/12/23 11:15:27;;;;;;;29.88;16.23;;;;;;;9.13;75.02;93969.50;4942119;29;20134;-47
2020/12/23 11:17:53;;;;;;;35.97;19.55;;;;;;;9.21;74.39;93960.59;4940756;29;20026;-46
2020/12/23 11:20:18;;;;;;;42.00;19.02;;;;;;;9.14;75.38;93968.19;4940788;29;20034;-46
2020/12/23 11:22:44;;;;;;;28.25;16.17;;;;;;;9.24;74.61;93963.03;4941929;29;20027;-47
2020/12/23 11:25:09;;;;;;;28.30;15.13;;;;;;;9.34;74.27;93966.84;4939077;29;20024;-47
2020/12/23 11:27:34;;;;;;;29.77;14.65;;;;;;;9.31;74.17;93959.66;4943405;29;20051;-47
2020/12/23 11:30:00;;;;;;;29.02;14.80;;;;;;;9.09;74.92;93957.28;4945893;29;20034;-45